ARL weather

Arly Airport
Arly, Tapoa, Burkina Faso

Public forecast

Using degrees Celsius for public forecast. Weather courtesy of forecast.io.

METAR (pilot weather report)

Report is more than 6 hours old.

Closest report is Fada N'gourma Airport, 71.5 nm (132.5 km) WNW. Retrieved 2009/09/21 17:00 UTC (10 years ago):

DFEF 211700Z 00000KT 9999 FEW0226 TCU BKN260 30/25

TAF (pilot weather forecast)

Closest forecast is Niamtougou International Airport, 112.3 nm (207.9 km) SSW. Retrieved 2019/03/27 00:22 UTC (2 hours ago):

TAF DXNG 262300Z 2700/2724 VRB03KT 9999 SCT010 TEMPO 2700/2704 TS BKN008 FEW016CB